Time;durP1;ratioP1;P1;durP2;ratioP2;P2;SDS_P1;SDS_P2;PMS_P1;PMS_P2;Temp;Humidity;BMP_temperature;BMP_pressure;BME280_temperature;BME280_humidity;BME280_pressure;Samples;Min_cycle;Max_cycle;Signal;HPM_P1;HPM_P2
2021/12/05 00:23:16;;;;;;;19.25;6.30;;;;;;;1.89;100.00;99639.47;5275981;28;20040;-63
2021/12/05 00:25:52;;;;;;;23.75;6.10;;;;;;;1.93;100.00;99631.31;5260767;28;20481;-64
2021/12/05 00:31:33;;;;;;;23.63;6.47;;;;;;;1.90;100.00;99641.19;5273035;28;20036;-64
2021/12/05 01:00:53;;;;;;;27.48;6.53;;;;;;;1.38;100.00;99629.31;5265474;28;20422;-64
2021/12/05 01:16:47;;;;;;;27.83;7.30;;;;;;;1.16;100.00;99645.47;5264082;28;20388;-64
2021/12/05 01:19:22;;;;;;;26.92;6.55;;;;;;;1.26;100.00;99644.00;5263004;28;20115;-64
2021/12/05 01:21:55;;;;;;;;;;;;;;;1.21;100.00;99646.06;5260407;28;20060;-64
2021/12/05 01:24:43;;;;;;;31.52;6.85;;;;;;;1.18;100.00;99638.34;5258454;28;19956;-64
2021/12/05 01:29:56;;;;;;;32.63;6.78;;;;;;;1.02;100.00;99641.00;5266751;28;20036;-64
2021/12/05 01:43:43;;;;;;;27.05;6.40;;;;;;;0.89;100.00;99635.59;5271768;28;20032;-64
2021/12/05 01:49:31;;;;;;;27.90;6.55;;;;;;;0.93;100.00;99650.25;5263214;28;20036;-64
2021/12/05 01:55:32;;;;;;;26.33;6.70;;;;;;;0.98;100.00;99645.59;5268812;28;20036;-64
2021/12/05 02:12:36;;;;;;;32.70;6.40;;;;;;;0.81;100.00;99632.56;5267498;28;20032;-64
2021/12/05 02:29:43;;;;;;;27.75;6.55;;;;;;;0.98;100.00;99618.50;5264124;28;20103;-64
2021/12/05 02:43:49;;;;;;;30.23;6.32;;;;;;;1.03;100.00;99619.06;5263974;28;20041;-64
2021/12/05 02:46:22;;;;;;;24.05;6.03;;;;;;;1.04;100.00;99601.53;5266939;28;20025;-64
2021/12/05 02:48:59;;;;;;;29.25;6.13;;;;;;;1.04;100.00;99607.63;5268042;28;20028;-64
2021/12/05 02:51:32;;;;;;;20.00;5.13;;;;;;;1.02;100.00;99604.25;5273464;28;20028;-64
2021/12/05 02:54:08;;;;;;;18.58;4.88;;;;;;;1.05;100.00;99609.31;5269092;28;20040;-64
2021/12/05 02:56:45;;;;;;;21.17;5.38;;;;;;;1.07;100.00;99610.06;5267965;28;20032;-64
2021/12/05 03:02:06;;;;;;;23.90;5.28;;;;;;;1.11;100.00;99622.13;5275685;28;20044;-64
2021/12/05 03:04:43;;;;;;;22.48;5.47;;;;;;;1.13;100.00;99619.38;5266904;28;20032;-64
2021/12/05 03:07:18;;;;;;;26.80;6.47;;;;;;;1.19;100.00;99624.31;5265445;28;20064;-64
2021/12/05 03:09:49;;;;;;;25.88;6.25;;;;;;;1.26;100.00;99617.72;5268207;28;20048;-64
2021/12/05 03:12:21;;;;;;;29.52;6.03;;;;;;;1.31;100.00;99617.50;5272695;28;20028;-64
2021/12/05 03:15:01;;;;;;;21.42;5.97;;;;;;;1.35;100.00;99616.38;5261768;28;20111;-64
2021/12/05 03:17:32;;;;;;;25.98;5.57;;;;;;;1.38;100.00;99605.66;5268201;28;20032;-64
2021/12/05 03:20:06;;;;;;;23.35;5.53;;;;;;;1.40;100.00;99603.81;5271476;28;20110;-64
2021/12/05 03:22:38;;;;;;;26.73;6.88;;;;;;;1.38;100.00;99603.03;5266466;28;20040;-64
2021/12/05 03:25:10;;;;;;;24.83;6.47;;;;;;;1.41;100.00;99596.78;5264957;28;20108;-64
2021/12/05 03:27:42;;;;;;;24.08;6.68;;;;;;;1.41;100.00;99594.13;5264617;28;20029;-64
2021/12/05 03:30:18;;;;;;;23.80;5.75;;;;;;;1.43;100.00;99601.00;5262380;28;20134;-64
2021/12/05 03:32:50;;;;;;;24.02;7.35;;;;;;;1.44;100.00;99605.31;5259787;28;20200;-64
2021/12/05 03:35:26;;;;;;;23.23;7.45;;;;;;;1.46;100.00;99603.44;5267404;28;20019;-64
2021/12/05 03:37:59;;;;;;;28.08;7.40;;;;;;;1.41;100.00;99594.97;5265793;28;20522;-64
2021/12/05 03:40:32;;;;;;;24.77;7.70;;;;;;;1.43;100.00;99598.38;5266869;28;20020;-64
2021/12/05 03:43:08;;;;;;;21.98;7.57;;;;;;;1.44;100.00;99601.81;5267491;28;20033;-64
2021/12/05 03:45:43;;;;;;;26.45;8.02;;;;;;;1.52;100.00;99597.00;5266161;28;20062;-64
2021/12/05 03:48:15;;;;;;;19.05;8.07;;;;;;;1.55;100.00;99594.16;5263257;28;20020;-64
2021/12/05 03:50:48;;;;;;;27.58;8.55;;;;;;;1.52;100.00;99600.47;5262742;28;20040;-64
2021/12/05 03:53:19;;;;;;;27.52;8.15;;;;;;;1.63;100.00;99604.22;5269363;28;20026;-64
2021/12/05 03:55:53;;;;;;;24.08;9.02;;;;;;;1.64;100.00;99601.50;5270283;28;20395;-64
2021/12/05 03:58:28;;;;;;;27.75;9.20;;;;;;;1.68;100.00;99605.63;5270340;28;20487;-64
2021/12/05 04:01:01;;;;;;;26.08;10.10;;;;;;;1.73;100.00;99608.84;5271305;28;20056;-64
2021/12/05 04:03:34;;;;;;;34.10;13.77;;;;;;;1.77;100.00;99605.09;5265026;28;20033;-64
2021/12/05 04:06:08;;;;;;;30.15;14.70;;;;;;;1.81;100.00;99605.75;5266455;28;20032;-64
2021/12/05 04:08:40;;;;;;;44.78;23.42;;;;;;;1.85;100.00;99598.53;5269098;28;20067;-64
2021/12/05 04:11:17;;;;;;;41.00;21.58;;;;;;;1.92;100.00;99610.38;5268238;28;20039;-64
2021/12/05 04:13:49;;;;;;;38.80;21.30;;;;;;;1.92;100.00;99621.75;5267600;28;20036;-64
2021/12/05 04:16:21;;;;;;;25.95;11.55;;;;;;;1.94;100.00;99608.50;5262603;28;20387;-64
2021/12/05 04:18:52;;;;;;;20.08;9.27;;;;;;;1.98;100.00;99610.00;5261299;28;20025;-63
2021/12/05 04:21:24;;;;;;;22.60;8.80;;;;;;;2.00;100.00;99604.66;5262715;28;20032;-63
2021/12/05 04:23:58;;;;;;;27.23;9.30;;;;;;;2.03;100.00;99607.91;5268993;28;20390;-64
2021/12/05 04:26:30;;;;;;;30.55;9.13;;;;;;;2.10;100.00;99616.28;5265100;28;20032;-64
2021/12/05 04:29:03;;;;;;;25.52;8.75;;;;;;;2.11;100.00;99617.97;5264085;28;20052;-64
2021/12/05 04:31:35;;;;;;;21.67;8.70;;;;;;;2.10;100.00;99617.13;5260759;28;20057;-63
2021/12/05 04:34:07;;;;;;;19.08;8.18;;;;;;;2.11;100.00;99607.44;5263430;28;20021;-63
2021/12/05 04:36:41;;;;;;;18.65;8.23;;;;;;;2.15;100.00;99608.97;5263652;28;20355;-64
2021/12/05 04:39:14;;;;;;;23.25;8.90;;;;;;;2.18;100.00;99610.56;5268567;28;20032;-64
2021/12/05 04:41:45;;;;;;;23.20;7.97;;;;;;;2.19;100.00;99621.00;5270955;28;20479;-64
2021/12/05 04:44:17;;;;;;;18.38;8.20;;;;;;;2.22;100.00;99619.94;5275730;28;20024;-64
2021/12/05 04:46:49;;;;;;;22.33;8.50;;;;;;;2.23;100.00;99617.22;5272381;28;20103;-64
2021/12/05 04:49:21;;;;;;;20.90;8.57;;;;;;;2.27;100.00;99617.91;5268347;28;20024;-64
2021/12/05 04:51:52;;;;;;;19.30;7.80;;;;;;;2.27;100.00;99618.72;5266479;28;20043;-63
2021/12/05 04:54:23;;;;;;;21.67;8.10;;;;;;;2.27;100.00;99610.84;5267005;28;20035;-64
2021/12/05 04:56:55;;;;;;;17.52;7.57;;;;;;;2.30;100.00;99615.06;5273112;28;20152;-63
2021/12/05 04:59:28;;;;;;;21.25;8.25;;;;;;;2.28;100.00;99620.44;5267686;28;20036;-64
2021/12/05 05:02:00;;;;;;;22.10;8.27;;;;;;;2.31;100.00;99608.88;5259802;28;20075;-64
2021/12/05 05:04:39;;;;;;;17.60;7.70;;;;;;;2.34;100.00;99606.06;5267646;28;20028;-64
2021/12/05 05:07:22;;;;;;;21.40;7.25;;;;;;;2.37;100.00;99611.09;5265367;28;20124;-64
2021/12/05 05:09:57;;;;;;;17.08;6.97;;;;;;;2.34;100.00;99608.69;5271304;28;20476;-64
2021/12/05 05:12:29;;;;;;;18.20;7.22;;;;;;;2.35;100.00;99615.63;5263727;28;20044;-64
2021/12/05 05:15:00;;;;;;;17.88;7.07;;;;;;;2.37;100.00;99605.84;5265787;28;20520;-64
2021/12/05 05:17:33;;;;;;;17.27;6.90;;;;;;;2.33;100.00;99614.88;5258792;28;20021;-64
2021/12/05 05:20:19;;;;;;;17.70;7.78;;;;;;;2.36;100.00;99614.69;5264731;28;20033;-64
2021/12/05 05:39:59;;;;;;;14.43;6.40;;;;;;;2.39;100.00;99635.53;5266922;28;20769;-64
2021/12/05 05:50:33;;;;;;;11.48;5.80;;;;;;;2.37;100.00;99645.31;5266229;28;20063;-64
2021/12/05 05:53:05;;;;;;;11.05;5.28;;;;;;;2.40;100.00;99646.91;5262261;28;20036;-64
2021/12/05 05:55:37;;;;;;;14.88;5.18;;;;;;;2.35;100.00;99652.47;5264985;28;20434;-63
2021/12/05 05:58:14;;;;;;;10.13;4.70;;;;;;;2.34;100.00;99648.16;5267111;28;20032;-64
2021/12/05 06:00:58;;;;;;;12.63;5.32;;;;;;;2.35;100.00;99650.69;5259343;28;20029;-63
2021/12/05 06:03:31;;;;;;;12.90;5.55;;;;;;;2.37;100.00;99653.22;5273269;28;20028;-64
2021/12/05 06:06:07;;;;;;;11.68;5.13;;;;;;;2.34;100.00;99656.06;5264527;28;20067;-64
2021/12/05 06:08:40;;;;;;;9.52;4.45;;;;;;;2.36;100.00;99656.81;5263011;28;20053;-64
2021/12/05 06:11:16;;;;;;;9.48;4.70;;;;;;;2.32;100.00;99660.53;5267877;28;20036;-64
2021/12/05 06:13:47;;;;;;;7.50;4.10;;;;;;;2.29;100.00;99653.69;5266934;28;20032;-64
2021/12/05 06:16:19;;;;;;;7.85;4.10;;;;;;;2.28;100.00;99664.31;5265393;28;20075;-65
2021/12/05 06:18:50;;;;;;;7.28;4.13;;;;;;;2.29;100.00;99658.97;5261221;28;20036;-64
2021/12/05 06:21:22;;;;;;;10.48;4.70;;;;;;;2.30;100.00;99665.94;5258219;28;20402;-64
2021/12/05 06:23:53;;;;;;;9.02;4.60;;;;;;;2.25;100.00;99670.63;5259252;28;20029;-63
2021/12/05 06:26:24;;;;;;;10.90;4.38;;;;;;;2.24;100.00;99661.00;5262462;28;20033;-64
2021/12/05 06:29:07;;;;;;;9.75;4.40;;;;;;;2.22;100.00;99673.41;5258488;28;20047;-64
2021/12/05 06:32:00;;;;;;;9.23;5.05;;;;;;;2.21;100.00;99673.53;5263027;28;20476;-63
2021/12/05 06:42:56;;;;;;;8.65;4.75;;;;;;;2.22;100.00;99688.38;5262049;28;20533;-63
2021/12/05 06:48:17;;;;;;;12.27;6.18;;;;;;;2.25;100.00;99691.66;5257716;28;20036;-64
2021/12/05 06:50:49;;;;;;;10.48;6.30;;;;;;;2.25;100.00;99691.66;5258332;28;20494;-64
2021/12/05 06:53:20;;;;;;;19.13;12.52;;;;;;;2.30;100.00;99696.63;5263646;28;20024;-64
2021/12/05 06:55:51;;;;;;;23.83;17.67;;;;;;;2.33;100.00;99696.47;5257165;28;20685;-63
2021/12/05 06:58:23;;;;;;;17.30;13.07;;;;;;;2.25;100.00;99696.09;5262091;28;20398;-64
2021/12/05 07:00:54;;;;;;;12.38;9.10;;;;;;;2.34;100.00;99704.28;5260386;28;20416;-64
2021/12/05 07:03:25;;;;;;;12.10;6.38;;;;;;;2.30;100.00;99705.41;5258395;28;20447;-63
2021/12/05 07:06:11;;;;;;;10.73;6.57;;;;;;;2.32;100.00;99721.09;5262193;28;20029;-63
2021/12/05 07:08:43;;;;;;;11.15;7.13;;;;;;;2.28;100.00;99714.31;5261805;28;20067;-63
2021/12/05 07:11:26;;;;;;;10.98;6.72;;;;;;;2.33;100.00;99733.31;5256397;28;20025;-64
2021/12/05 07:16:43;;;;;;;12.65;6.78;;;;;;;2.41;100.00;99728.44;5261715;28;20383;-63
2021/12/05 07:19:38;;;;;;;11.48;6.78;;;;;;;2.35;100.00;99729.63;5258318;28;20071;-64
2021/12/05 07:22:21;;;;;;;12.88;7.10;;;;;;;2.41;100.00;99738.13;5256718;28;20592;-64
2021/12/05 07:25:05;;;;;;;11.77;6.22;;;;;;;2.40;100.00;99734.66;5263471;28;20067;-64
2021/12/05 07:41:54;;;;;;;12.77;7.50;;;;;;;2.43;100.00;99755.50;5260839;28;20635;-64
2021/12/05 07:44:25;;;;;;;14.05;7.30;;;;;;;2.44;100.00;99764.28;5261325;28;20486;-64
2021/12/05 07:46:57;;;;;;;16.60;8.25;;;;;;;2.49;100.00;99765.69;5259229;28;20107;-64
2021/12/05 07:49:29;;;;;;;13.95;7.30;;;;;;;2.55;100.00;99769.69;5267383;28;20037;-64
2021/12/05 07:52:00;;;;;;;16.60;7.93;;;;;;;2.47;100.00;99772.81;5260665;28;20037;-63
2021/12/05 07:54:39;;;;;;;13.73;8.10;;;;;;;2.55;100.00;99775.84;5262315;28;20620;-64
2021/12/05 08:16:48;;;;;;;15.90;7.65;;;;;;;2.62;100.00;99794.72;5260126;28;20028;-68
2021/12/05 08:19:20;;;;;;;15.23;7.78;;;;;;;2.66;100.00;99795.41;5269820;28;20024;-68
2021/12/05 08:21:55;;;;;;;16.13;8.90;;;;;;;2.66;100.00;99793.59;5263025;28;20040;-68
2021/12/05 08:24:33;;;;;;;15.85;8.43;;;;;;;2.73;100.00;99789.66;5265390;28;20471;-68
2021/12/05 08:27:06;;;;;;;17.48;8.15;;;;;;;2.71;100.00;99794.19;5261366;28;20028;-68
2021/12/05 08:29:49;;;;;;;15.77;8.70;;;;;;;2.77;100.00;99798.22;5258204;28;20032;-68
2021/12/05 08:32:35;;;;;;;14.43;8.27;;;;;;;2.77;100.00;99807.94;5259272;28;20391;-68
2021/12/05 08:35:33;;;;;;;12.60;7.68;;;;;;;2.77;100.00;99806.13;5257520;28;20025;-68
2021/12/05 09:31:19;;;;;;;14.77;9.30;;;;;;;2.96;100.00;99881.44;5253035;28;20408;-68
2021/12/05 09:51:34;;;;;;;19.77;11.70;;;;;;;3.05;100.00;99907.19;5232959;28;20091;-68
2021/12/05 10:03:35;;;;;;;20.67;12.93;;;;;;;3.08;100.00;99915.75;5240658;28;20037;-68
2021/12/05 10:11:39;;;;;;;23.67;12.90;;;;;;;3.16;100.00;99936.38;5232374;28;20502;-68
2021/12/05 10:17:28;;;;;;;21.63;13.55;;;;;;;3.20;100.00;99935.25;5241848;28;20420;-69
2021/12/05 10:26:07;;;;;;;25.83;13.25;;;;;;;3.25;100.00;99946.38;5236975;28;20509;-69
2021/12/05 10:37:22;;;;;;;21.48;13.35;;;;;;;3.34;100.00;99966.06;5233113;28;20746;-68
2021/12/05 10:40:15;;;;;;;21.92;13.30;;;;;;;3.41;100.00;99964.75;5234922;28;20025;-68
2021/12/05 10:42:53;;;;;;;22.42;12.55;;;;;;;3.42;100.00;99963.81;5233298;28;20037;-68
2021/12/05 10:45:30;;;;;;;18.77;11.90;;;;;;;3.36;100.00;99958.91;5235840;28;20033;-69
2021/12/05 10:48:08;;;;;;;18.88;12.05;;;;;;;3.40;100.00;99963.06;5235043;28;20033;-68
2021/12/05 10:50:44;;;;;;;18.13;11.35;;;;;;;3.39;100.00;99963.16;5233203;28;20039;-68
2021/12/05 10:53:30;;;;;;;18.27;12.07;;;;;;;3.42;100.00;99973.53;5239293;28;20029;-67
2021/12/05 10:56:15;;;;;;;20.38;12.40;;;;;;;3.44;100.00;99972.47;5235764;28;20482;-68
2021/12/05 10:58:46;;;;;;;20.65;11.85;;;;;;;3.39;100.00;99974.53;5240114;28;20029;-68
2021/12/05 11:01:22;;;;;;;18.00;11.63;;;;;;;3.43;100.00;99977.84;5250117;28;20026;-68
2021/12/05 11:04:00;;;;;;;18.10;11.73;;;;;;;3.42;100.00;99976.16;5248091;28;20368;-68
2021/12/05 11:06:34;;;;;;;16.17;11.07;;;;;;;3.47;100.00;99980.22;5244924;28;20143;-67
2021/12/05 11:09:10;;;;;;;18.85;11.52;;;;;;;3.52;100.00;99983.41;5247096;28;20045;-68
2021/12/05 11:11:44;;;;;;;15.68;10.75;;;;;;;3.44;100.00;99976.91;5246544;28;20035;-69
2021/12/05 11:14:18;;;;;;;;;;;;;;;3.57;100.00;99969.06;5245358;28;20017;-68
2021/12/05 11:16:53;;;;;;;14.13;8.80;;;;;;;3.62;100.00;99973.13;5256085;28;19916;-68
2021/12/05 11:19:29;;;;;;;15.95;9.77;;;;;;;3.73;100.00;99978.59;5248783;28;20035;-69
2021/12/05 11:22:10;;;;;;;12.98;8.95;;;;;;;3.75;100.00;99972.38;5249494;28;20059;-69
2021/12/05 11:24:48;;;;;;;13.48;8.75;;;;;;;3.85;100.00;99974.34;5255463;28;20115;-67
2021/12/05 11:27:28;;;;;;;14.85;9.38;;;;;;;3.82;100.00;99976.34;5248681;28;20435;-68
2021/12/05 11:30:18;;;;;;;13.80;9.93;;;;;;;3.83;100.00;99991.22;5254191;28;20509;-68
2021/12/05 11:33:00;;;;;;;15.27;10.18;;;;;;;3.75;100.00;99990.84;5239970;28;20040;-69
2021/12/05 11:35:31;;;;;;;15.60;10.23;;;;;;;3.77;100.00;99992.44;5248671;28;20025;-69
2021/12/05 11:38:16;;;;;;;16.55;10.63;;;;;;;3.84;100.00;99993.75;5250451;28;20036;-68
2021/12/05 11:41:10;;;;;;;15.65;11.18;;;;;;;3.77;100.00;100004.78;5249858;28;20043;-68
2021/12/05 11:43:45;;;;;;;15.73;10.73;;;;;;;3.72;100.00;100003.28;5242705;28;20041;-67
2021/12/05 11:46:32;;;;;;;15.35;10.65;;;;;;;3.68;100.00;100014.09;5255177;28;20036;-68
2021/12/05 11:49:08;;;;;;;15.32;10.32;;;;;;;3.57;100.00;100014.78;5245099;28;20467;-68
2021/12/05 11:51:44;;;;;;;17.08;10.35;;;;;;;3.59;100.00;100017.34;5250685;28;20491;-68
2021/12/05 11:54:28;;;;;;;13.65;10.20;;;;;;;3.62;100.00;100022.41;5247393;28;20107;-68
2021/12/05 11:57:29;;;;;;;15.40;10.90;;;;;;;3.67;100.00;100022.97;5252008;28;20104;-68
2021/12/05 12:00:09;;;;;;;15.60;10.75;;;;;;;3.60;100.00;100022.50;5252665;28;20047;-68
2021/12/05 12:02:42;;;;;;;16.45;11.07;;;;;;;3.59;100.00;100028.72;5251001;28;20495;-69
2021/12/05 12:05:22;;;;;;;17.35;11.88;;;;;;;3.68;100.00;100035.22;5253372;28;20039;-68
2021/12/05 12:08:00;;;;;;;16.52;10.68;;;;;;;3.61;100.00;100029.47;5254305;28;20033;-68
2021/12/05 12:10:38;;;;;;;16.50;10.63;;;;;;;3.62;100.00;100032.97;5252135;28;20116;-68
2021/12/05 12:13:15;;;;;;;14.10;10.27;;;;;;;3.61;100.00;100029.47;5252476;28;20037;-68
2021/12/05 12:15:58;;;;;;;16.13;10.77;;;;;;;3.68;100.00;100036.09;5252300;28;20412;-68
2021/12/05 12:18:33;;;;;;;14.30;9.88;;;;;;;3.67;100.00;100034.38;5246050;28;20040;-68
2021/12/05 12:21:14;;;;;;;15.05;9.85;;;;;;;3.67;100.00;100028.25;5244655;28;20486;-68
2021/12/05 12:23:50;;;;;;;14.82;10.15;;;;;;;3.67;100.00;100028.25;5246127;28;20025;-69
2021/12/05 12:26:22;;;;;;;16.77;10.52;;;;;;;3.70;100.00;100033.31;5242087;28;20042;-68
2021/12/05 12:28:58;;;;;;;14.20;9.82;;;;;;;3.74;100.00;100037.50;5252043;28;20479;-68
2021/12/05 12:31:35;;;;;;;14.50;10.70;;;;;;;3.73;100.00;100039.28;5249031;28;20029;-67
2021/12/05 12:34:18;;;;;;;13.15;9.60;;;;;;;3.73;100.00;100039.28;5247996;28;20039;-68
2021/12/05 12:36:52;;;;;;;14.88;10.27;;;;;;;3.75;100.00;100046.25;5246116;28;20486;-68
2021/12/05 12:39:35;;;;;;;;;;;;;;;3.83;100.00;100055.38;5246028;28;20410;-68
2021/12/05 12:42:13;;;;;;;15.93;10.65;;;;;;;3.88;100.00;100044.56;5248600;28;19913;-67
2021/12/05 12:45:13;;;;;;;18.13;12.13;;;;;;;3.88;100.00;100055.97;5248491;28;20042;-67
2021/12/05 12:47:50;;;;;;;21.65;12.70;;;;;;;3.91;100.00;100060.19;5246794;28;20750;-68
2021/12/05 12:50:29;;;;;;;17.73;12.65;;;;;;;3.97;100.00;100070.41;5246864;28;20030;-67
2021/12/05 12:53:18;;;;;;;17.90;12.20;;;;;;;3.92;100.00;100070.66;5250475;28;20501;-68
2021/12/05 12:56:05;;;;;;;18.40;12.20;;;;;;;4.00;100.00;100069.34;5240122;28;20084;-68
2021/12/05 12:58:50;;;;;;;18.58;12.02;;;;;;;3.93;100.00;100072.38;5249234;28;20045;-68
2021/12/05 13:01:41;;;;;;;17.10;10.70;;;;;;;3.91;100.00;100076.03;5244045;28;20031;-68
2021/12/05 13:10:00;;;;;;;19.17;12.10;;;;;;;3.93;100.00;100076.78;5247165;28;20055;-68
2021/12/05 13:10:27;;;;;;;15.90;10.40;;;;;;;3.93;100.00;100082.06;5254855;28;20052;-68
2021/12/05 13:13:14;;;;;;;14.45;10.23;;;;;;;3.96;100.00;100083.69;5242943;28;20064;-67
2021/12/05 13:15:50;;;;;;;15.43;10.43;;;;;;;3.97;100.00;100088.88;5241914;28;20061;-67
2021/12/05 13:18:26;;;;;;;14.68;10.57;;;;;;;3.97;100.00;100091.50;5244287;28;20044;-68
2021/12/05 13:21:08;;;;;;;14.93;10.43;;;;;;;3.89;100.00;100094.63;5246193;28;20033;-69
2021/12/05 13:23:45;;;;;;;15.07;10.50;;;;;;;3.86;100.00;100101.88;5249104;28;20032;-67
2021/12/05 13:26:35;;;;;;;13.45;9.70;;;;;;;3.86;100.00;100101.88;5244792;28;20158;-68
2021/12/05 13:29:11;;;;;;;13.68;9.95;;;;;;;3.82;100.00;100101.19;5246290;28;20033;-68
2021/12/05 13:31:44;;;;;;;15.15;10.23;;;;;;;3.87;100.00;100107.06;5243101;28;20033;-67
2021/12/05 13:34:40;;;;;;;16.83;11.10;;;;;;;3.97;100.00;100106.47;5239985;28;20025;-68
2021/12/05 13:37:15;;;;;;;13.70;9.57;;;;;;;3.80;100.00;100115.44;5246529;28;20387;-68
2021/12/05 13:40:08;;;;;;;16.65;11.13;;;;;;;3.92;100.00;100117.31;5250366;28;20086;-68
2021/12/05 13:43:06;;;;;;;15.95;10.55;;;;;;;3.92;100.00;100127.88;5242054;28;20087;-68
2021/12/05 13:45:41;;;;;;;16.23;11.15;;;;;;;3.92;100.00;100133.16;5253515;28;20048;-67
2021/12/05 13:48:25;;;;;;;17.05;11.18;;;;;;;3.89;100.00;100135.97;5250790;28;20476;-68
2021/12/05 13:51:04;;;;;;;18.70;12.32;;;;;;;3.92;100.00;100134.00;5242896;28;20076;-68
2021/12/05 13:53:44;;;;;;;19.27;12.35;;;;;;;3.98;100.00;100131.94;5247730;28;20033;-68
2021/12/05 13:56:23;;;;;;;20.35;12.88;;;;;;;3.91;100.00;100129.69;5244888;28;20029;-68
2021/12/05 13:59:05;;;;;;;21.95;12.88;;;;;;;3.97;100.00;100139.00;5242863;28;20025;-69
2021/12/05 14:01:46;;;;;;;20.13;13.05;;;;;;;3.89;100.00;100139.47;5244396;28;20415;-68
2021/12/05 14:04:19;;;;;;;19.58;11.95;;;;;;;3.87;100.00;100135.22;5248617;28;20545;-68
2021/12/05 14:06:59;;;;;;;17.83;12.02;;;;;;;3.87;100.00;100146.63;5246717;28;20036;-68
2021/12/05 14:09:40;;;;;;;19.83;12.88;;;;;;;3.89;100.00;100141.25;5244597;28;20041;-68
2021/12/05 14:12:24;;;;;;;20.77;13.75;;;;;;;3.96;100.00;100155.78;5249981;28;20138;-68
2021/12/05 14:15:02;;;;;;;27.40;18.10;;;;;;;3.98;100.00;100159.16;5247740;28;20108;-68
2021/12/05 14:17:40;;;;;;;35.40;22.70;;;;;;;3.87;100.00;100153.69;5245008;28;20024;-69
2021/12/05 14:20:25;;;;;;;52.35;35.08;;;;;;;3.86;100.00;100157.28;5251484;28;20740;-68
2021/12/05 14:22:57;;;;;;;44.67;31.00;;;;;;;3.90;100.00;100161.44;5250053;28;20043;-68
2021/12/05 14:25:32;;;;;;;37.72;27.33;;;;;;;3.87;100.00;100169.53;5246698;28;20030;-68
2021/12/05 14:28:04;;;;;;;32.80;23.90;;;;;;;3.77;100.00;100178.94;5248318;28;20092;-69
2021/12/05 14:30:35;;;;;;;24.90;17.77;;;;;;;3.74;100.00;100182.59;5247765;28;20731;-68
2021/12/05 14:33:07;;;;;;;20.17;15.25;;;;;;;3.78;100.00;100188.53;5247545;28;20083;-69
2021/12/05 14:35:40;;;;;;;20.55;15.07;;;;;;;3.81;100.00;100191.84;5251315;28;20372;-68
2021/12/05 14:38:12;;;;;;;18.03;12.20;;;;;;;3.82;100.00;100209.38;5246452;28;20033;-68
2021/12/05 14:40:43;;;;;;;20.13;12.32;;;;;;;3.80;100.00;100211.25;5235725;28;20036;-68
2021/12/05 14:43:19;;;;;;;16.48;11.13;;;;;;;3.70;100.00;100216.22;5241577;28;20036;-68
2021/12/05 14:45:51;;;;;;;19.67;11.20;;;;;;;3.78;100.00;100221.06;5240563;28;20033;-69
2021/12/05 14:48:22;;;;;;;16.20;11.05;;;;;;;3.72;100.00;100226.66;5236669;28;20487;-68
2021/12/05 14:50:53;;;;;;;17.20;11.48;;;;;;;3.71;100.00;100228.47;5246596;28;20061;-69
2021/12/05 14:53:25;;;;;;;16.25;10.80;;;;;;;3.69;100.00;100224.22;5237477;28;20055;-68
2021/12/05 14:55:58;;;;;;;16.52;10.93;;;;;;;3.75;100.00;100230.94;5238437;28;20386;-68
2021/12/05 14:58:30;;;;;;;15.07;10.88;;;;;;;3.67;100.00;100239.31;5244142;28;20137;-69
2021/12/05 15:01:02;;;;;;;16.17;11.10;;;;;;;3.70;100.00;100241.75;5247047;28;20068;-68
2021/12/05 15:03:34;;;;;;;18.35;11.85;;;;;;;3.73;100.00;100247.69;5247018;28;20110;-69
2021/12/05 15:06:07;;;;;;;16.02;10.85;;;;;;;3.71;100.00;100249.56;5240795;28;20476;-68
2021/12/05 15:08:39;;;;;;;16.65;10.55;;;;;;;3.65;100.00;100255.22;5243715;28;20504;-68
2021/12/05 15:11:10;;;;;;;17.05;10.85;;;;;;;3.68;100.00;100257.69;5243071;28;20047;-68
2021/12/05 15:13:41;;;;;;;15.25;10.93;;;;;;;3.70;100.00;100270.75;5248690;28;20363;-68
2021/12/05 15:16:12;;;;;;;16.10;10.52;;;;;;;3.63;100.00;100272.06;5248150;28;20025;-68
2021/12/05 15:18:44;;;;;;;14.82;10.25;;;;;;;3.60;100.00;100273.06;5247566;28;20029;-68
2021/12/05 15:21:15;;;;;;;15.38;10.50;;;;;;;3.57;100.00;100283.81;5248281;28;20021;-68
2021/12/05 15:23:46;;;;;;;14.90;9.63;;;;;;;3.62;100.00;100287.03;5239439;28;20025;-68
2021/12/05 15:26:18;;;;;;;14.15;9.57;;;;;;;3.57;100.00;100302.28;5239125;28;20025;-69
2021/12/05 15:28:50;;;;;;;15.27;9.90;;;;;;;3.50;100.00;100303.56;5250330;28;20063;-68
2021/12/05 15:31:21;;;;;;;14.10;9.88;;;;;;;3.51;100.00;100302.63;5244576;28;20811;-68
2021/12/05 15:33:53;;;;;;;14.82;9.43;;;;;;;3.53;100.00;100312.16;5248223;28;20037;-68
2021/12/05 15:36:31;;;;;;;14.77;9.75;;;;;;;3.57;100.00;100315.47;5238667;28;20386;-68
2021/12/05 15:39:19;;;;;;;16.08;10.10;;;;;;;3.58;100.00;100317.16;5238887;28;20044;-68
2021/12/05 15:41:54;;;;;;;15.68;10.30;;;;;;;3.49;100.00;100328.22;5246246;28;20025;-68
2021/12/05 15:44:32;;;;;;;16.02;9.90;;;;;;;3.48;100.00;100321.25;5241592;28;20033;-68
2021/12/05 15:47:11;;;;;;;18.38;11.27;;;;;;;3.44;100.00;100328.47;5243142;28;20041;-68
2021/12/05 15:49:58;;;;;;;17.20;11.52;;;;;;;3.44;100.00;100335.56;5249702;28;20036;-69
2021/12/05 15:52:35;;;;;;;17.52;11.20;;;;;;;3.44;100.00;100346.09;5247745;28;20037;-68
2021/12/05 15:55:39;;;;;;;16.77;10.77;;;;;;;3.49;100.00;100350.19;5247429;28;20809;-68
2021/12/05 15:58:18;;;;;;;16.52;10.60;;;;;;;3.46;100.00;100350.34;5243953;28;20486;-68
2021/12/05 16:00:54;;;;;;;17.05;10.98;;;;;;;3.43;100.00;100358.44;5250484;28;20021;-67
2021/12/05 16:03:39;;;;;;;19.15;12.93;;;;;;;3.36;100.00;100364.09;5243375;28;20078;-68
2021/12/05 16:06:15;;;;;;;17.88;11.10;;;;;;;3.38;100.00;100357.00;5243014;28;20079;-68
2021/12/05 16:08:49;;;;;;;16.38;11.18;;;;;;;3.26;100.00;100364.63;5241857;28;20103;-68
2021/12/05 16:11:21;;;;;;;17.60;11.30;;;;;;;3.33;100.00;100373.88;5251810;28;20100;-67
2021/12/05 16:13:54;;;;;;;16.70;10.98;;;;;;;3.28;100.00;100380.34;5245260;28;20363;-68
2021/12/05 16:16:28;;;;;;;15.40;9.85;;;;;;;3.38;100.00;100378.94;5245056;28;20025;-69
2021/12/05 16:19:06;;;;;;;15.00;10.07;;;;;;;3.24;100.00;100382.31;5245888;28;20047;-68
2021/12/05 16:21:39;;;;;;;15.48;9.55;;;;;;;3.26;100.00;100385.72;5245662;28;20358;-68
2021/12/05 16:24:17;;;;;;;15.88;10.07;;;;;;;3.31;100.00;100399.47;5250083;28;20135;-68
2021/12/05 16:26:50;;;;;;;16.83;10.60;;;;;;;3.37;100.00;100398.31;5244065;28;20067;-68
2021/12/05 16:29:25;;;;;;;21.05;11.52;;;;;;;3.26;100.00;100401.53;5249914;28;20039;-68
2021/12/05 16:31:59;;;;;;;16.73;10.75;;;;;;;3.32;100.00;100411.75;5249338;28;20028;-68
2021/12/05 16:34:32;;;;;;;18.85;11.45;;;;;;;3.36;100.00;100422.09;5246985;28;20033;-68
2021/12/05 16:37:07;;;;;;;19.95;12.82;;;;;;;3.33;100.00;100423.13;5247351;28;20325;-69
2021/12/05 16:39:43;;;;;;;18.02;12.60;;;;;;;3.31;100.00;100417.09;5248609;28;20394;-68
2021/12/05 16:42:18;;;;;;;17.40;11.63;;;;;;;3.28;100.00;100422.53;5248318;28;20108;-68
2021/12/05 16:44:56;;;;;;;20.08;11.77;;;;;;;3.31;100.00;100425.00;5247718;28;20040;-68
2021/12/05 16:47:30;;;;;;;19.55;12.40;;;;;;;3.28;100.00;100426.03;5248806;28;20033;-68
2021/12/05 16:50:05;;;;;;;14.77;10.13;;;;;;;3.33;100.00;100425.78;5251722;28;20032;-69
2021/12/05 16:52:45;;;;;;;17.52;11.35;;;;;;;3.31;100.00;100433.75;5247840;28;20629;-68
2021/12/05 16:55:29;;;;;;;18.58;12.00;;;;;;;3.36;100.00;100432.66;5250655;28;20466;-69
2021/12/05 16:58:10;;;;;;;18.80;12.75;;;;;;;3.29;100.00;100427.72;5240607;28;20484;-68
2021/12/05 17:00:44;;;;;;;19.88;13.00;;;;;;;3.25;100.00;100433.25;5240238;28;20037;-68
2021/12/05 17:03:26;;;;;;;18.15;12.98;;;;;;;3.30;100.00;100434.72;5243440;28;20040;-68
2021/12/05 17:06:04;;;;;;;20.33;12.93;;;;;;;3.26;100.00;100433.16;5241748;28;20025;-68
2021/12/05 17:08:42;;;;;;;17.95;11.25;;;;;;;3.30;100.00;100453.16;5242669;28;20069;-67
2021/12/05 17:11:18;;;;;;;17.73;11.73;;;;;;;3.29;100.00;100454.09;5242534;28;20100;-68